Time;durP1;ratioP1;P1;durP2;ratioP2;P2;SDS_P1;SDS_P2;PMS_P1;PMS_P2;Temp;Humidity;BMP_temperature;BMP_pressure;BME280_temperature;BME280_humidity;BME280_pressure;Samples;Min_cycle;Max_cycle;Signal;HPM_P1;HPM_P2
2022/10/22 00:02:06;;;;;;;20.85;15.05;;;;;;;;;;5092043;28;20055;-65
2022/10/22 00:04:33;;;;;;;21.02;14.55;;;;;;;;;;5093242;28;20024;-65
2022/10/22 00:06:59;;;;;;;21.38;14.50;;;;;;;;;;5093220;28;20377;-65
2022/10/22 00:09:25;;;;;;;21.60;15.13;;;;;;;;;;5092049;28;20032;-65
2022/10/22 00:11:51;;;;;;;21.02;14.70;;;;;;;;;;5093167;28;20020;-64
2022/10/22 00:14:17;;;;;;;20.17;14.07;;;;;;;;;;5092915;28;20054;-65
2022/10/22 00:16:43;;;;;;;24.27;16.17;;;;;;;;;;5093552;28;20028;-65
2022/10/22 00:19:10;;;;;;;22.65;15.00;;;;;;;;;;5093589;28;20032;-65
2022/10/22 00:21:36;;;;;;;21.10;14.75;;;;;;;;;;5093257;28;20127;-65
2022/10/22 00:24:02;;;;;;;27.95;16.92;;;;;;;;;;5092712;28;20055;-65
2022/10/22 00:26:28;;;;;;;20.45;15.35;;;;;;;;;;5091869;28;20063;-65
2022/10/22 00:28:54;;;;;;;20.38;13.90;;;;;;;;;;5091763;28;20031;-65
2022/10/22 00:31:20;;;;;;;20.50;13.65;;;;;;;;;;5092234;28;20020;-65
2022/10/22 00:33:46;;;;;;;22.75;14.75;;;;;;;;;;5092982;28;20387;-66
2022/10/22 00:36:13;;;;;;;21.80;14.27;;;;;;;;;;5093155;28;20048;-64
2022/10/22 00:38:39;;;;;;;20.63;14.40;;;;;;;;;;5093604;28;20050;-66
2022/10/22 00:41:05;;;;;;;22.10;15.10;;;;;;;;;;5093333;28;20031;-66
2022/10/22 00:43:31;;;;;;;20.00;13.77;;;;;;;;;;5091966;28;20032;-65
2022/10/22 00:45:57;;;;;;;22.23;14.82;;;;;;;;;;5093427;28;20399;-65
2022/10/22 00:48:33;;;;;;;23.73;14.30;;;;;;;;;;5093500;28;20035;-65
2022/10/22 00:51:00;;;;;;;21.42;14.13;;;;;;;;;;5091234;28;20448;-64
2022/10/22 00:53:31;;;;;;;20.03;13.23;;;;;;;;;;5092411;28;20020;-65
2022/10/22 00:55:57;;;;;;;19.55;13.30;;;;;;;;;;5091253;28;20364;-65
2022/10/22 00:58:26;;;;;;;21.10;13.52;;;;;;;;;;5091506;28;20464;-65
2022/10/22 01:00:52;;;;;;;21.23;13.50;;;;;;;;;;5092602;28;20035;-65
2022/10/22 01:03:18;;;;;;;19.20;12.90;;;;;;;;;;5092396;28;20028;-64
2022/10/22 01:05:50;;;;;;;19.33;13.05;;;;;;;;;;5092952;28;20030;-65
2022/10/22 01:08:35;;;;;;;19.45;13.35;;;;;;;;;;5093673;28;20056;-65
2022/10/22 01:11:20;;;;;;;22.70;14.20;;;;;;;;;;5093583;28;20490;-65
2022/10/22 01:13:52;;;;;;;20.20;13.30;;;;;;;;;;5092800;28;20039;-63
2022/10/22 01:16:34;;;;;;;19.58;13.82;;;;;;;;;;5092351;28;20115;-65
2022/10/22 01:19:17;;;;;;;21.27;14.10;;;;;;;;;;5091266;28;20428;-64
2022/10/22 01:21:45;;;;;;;23.65;13.18;;;;;;;;;;5092528;28;20028;-65
2022/10/22 01:24:11;;;;;;;22.58;14.10;;;;;;;;;;5090864;28;20028;-66
2022/10/22 01:26:55;;;;;;;19.50;13.57;;;;;;;;;;5092206;28;20472;-65
2022/10/22 01:29:23;;;;;;;22.00;13.82;;;;;;;;;;5092381;28;20024;-65
2022/10/22 01:31:52;;;;;;;21.63;13.67;;;;;;;;;;5090828;28;20025;-66
2022/10/22 01:34:19;;;;;;;20.30;13.07;;;;;;;;;;5090724;28;20080;-64
2022/10/22 01:36:46;;;;;;;23.38;14.13;;;;;;;;;;5090938;28;20116;-66
2022/10/22 01:39:13;;;;;;;19.45;13.10;;;;;;;;;;5092146;28;20032;-65
2022/10/22 01:41:39;;;;;;;22.08;14.57;;;;;;;;;;5090558;28;20038;-66
2022/10/22 01:44:05;;;;;;;23.35;14.45;;;;;;;;;;5091848;28;20028;-65
2022/10/22 01:46:32;;;;;;;24.77;14.77;;;;;;;;;;5093286;28;20035;-67
2022/10/22 01:48:57;;;;;;;21.15;14.43;;;;;;;;;;5091979;28;20365;-65
2022/10/22 01:51:42;;;;;;;22.83;14.70;;;;;;;;;;5094117;28;20047;-65
2022/10/22 01:54:11;;;;;;;22.15;14.27;;;;;;;;;;5095742;28;20464;-65
2022/10/22 01:56:46;;;;;;;19.88;14.13;;;;;;;;;;5094676;28;20495;-65
2022/10/22 01:59:33;;;;;;;25.08;14.93;;;;;;;;;;5094787;28;20618;-65
2022/10/22 02:02:04;;;;;;;22.83;15.25;;;;;;;;;;5095594;28;20027;-65
2022/10/22 02:04:39;;;;;;;21.15;14.52;;;;;;;;;;5095410;28;20435;-65
2022/10/22 02:07:07;;;;;;;23.08;15.00;;;;;;;;;;5094168;28;20028;-65
2022/10/22 02:09:35;;;;;;;23.27;14.88;;;;;;;;;;5095386;28;20030;-65
2022/10/22 02:12:02;;;;;;;22.77;15.40;;;;;;;;;;5095830;28;20024;-65
2022/10/22 02:14:29;;;;;;;27.70;16.58;;;;;;;;;;5095277;28;20107;-65
2022/10/22 02:16:56;;;;;;;22.05;15.35;;;;;;;;;;5095376;28;20021;-65
2022/10/22 02:19:36;;;;;;;24.65;15.18;;;;;;;;;;5095221;28;20063;-66
2022/10/22 02:22:02;;;;;;;23.38;15.27;;;;;;;;;;5095338;28;20451;-65
2022/10/22 02:24:28;;;;;;;24.67;14.93;;;;;;;;;;5095375;28;20077;-64
2022/10/22 02:27:09;;;;;;;23.90;15.75;;;;;;;;;;5094055;28;20063;-65
2022/10/22 02:29:40;;;;;;;24.77;15.48;;;;;;;;;;5095044;28;20112;-64
2022/10/22 02:32:09;;;;;;;25.02;16.52;;;;;;;;;;5095623;28;20096;-65
2022/10/22 02:34:35;;;;;;;27.23;16.23;;;;;;;;;;5094090;28;20031;-64
2022/10/22 02:37:02;;;;;;;27.30;15.57;;;;;;;;;;5095557;28;20535;-65
2022/10/22 02:39:28;;;;;;;22.90;15.60;;;;;;;;;;5094026;28;20403;-65
2022/10/22 02:41:56;;;;;;;21.45;15.82;;;;;;;;;;5096684;28;20036;-66
2022/10/22 02:44:22;;;;;;;23.70;16.80;;;;;;;;;;5097962;28;20035;-65
2022/10/22 02:46:49;;;;;;;21.95;15.30;;;;;;;;;;5095946;28;20111;-64
2022/10/22 02:49:15;;;;;;;26.33;16.00;;;;;;;;;;5094506;28;20059;-64
2022/10/22 02:51:41;;;;;;;23.63;15.02;;;;;;;;;;5094701;28;20024;-65
2022/10/22 02:54:07;;;;;;;23.45;15.85;;;;;;;;;;5093281;28;20024;-66
2022/10/22 02:56:33;;;;;;;24.35;15.32;;;;;;;;;;5093492;28;20035;-65
2022/10/22 02:58:59;;;;;;;24.10;15.88;;;;;;;;;;5093300;28;20024;-64
2022/10/22 03:01:25;;;;;;;24.75;15.05;;;;;;;;;;5093730;28;20034;-65
2022/10/22 03:03:51;;;;;;;23.20;15.43;;;;;;;;;;5094265;28;20372;-65
2022/10/22 03:06:17;;;;;;;23.23;15.75;;;;;;;;;;5094610;28;20102;-65
2022/10/22 03:08:43;;;;;;;23.00;15.02;;;;;;;;;;5093195;28;20028;-66
2022/10/22 03:11:09;;;;;;;21.55;14.60;;;;;;;;;;5093101;28;20111;-66
2022/10/22 03:13:36;;;;;;;24.17;15.68;;;;;;;;;;5094330;28;20020;-65
2022/10/22 03:16:02;;;;;;;22.85;16.25;;;;;;;;;;5093322;28;20024;-64
2022/10/22 03:18:28;;;;;;;22.33;15.00;;;;;;;;;;5093593;28;20060;-65
2022/10/22 03:21:03;;;;;;;24.77;15.52;;;;;;;;;;5094636;28;20552;-66
2022/10/22 03:23:29;;;;;;;23.38;14.60;;;;;;;;;;5094659;28;20063;-65
2022/10/22 03:25:55;;;;;;;28.13;15.07;;;;;;;;;;5093836;28;20028;-65
2022/10/22 03:28:21;;;;;;;24.88;15.02;;;;;;;;;;5093622;28;20070;-65
2022/10/22 03:30:47;;;;;;;23.73;15.70;;;;;;;;;;5094743;28;20476;-63
2022/10/22 03:33:13;;;;;;;25.30;16.08;;;;;;;;;;5094639;28;20020;-65
2022/10/22 03:35:42;;;;;;;27.42;16.17;;;;;;;;;;5094024;28;20483;-65
2022/10/22 03:38:08;;;;;;;21.17;15.00;;;;;;;;;;5094126;28;20104;-65
2022/10/22 03:40:34;;;;;;;25.60;16.27;;;;;;;;;;5093964;28;20020;-66
2022/10/22 03:43:00;;;;;;;24.17;14.32;;;;;;;;;;5094967;28;20060;-67
2022/10/22 03:45:26;;;;;;;22.65;14.48;;;;;;;;;;5095278;28;20052;-65
2022/10/22 03:47:52;;;;;;;24.25;15.55;;;;;;;;;;5094657;28;20079;-64
2022/10/22 03:50:18;;;;;;;26.48;15.25;;;;;;;;;;5095008;28;20024;-65
2022/10/22 03:52:44;;;;;;;22.83;14.98;;;;;;;;;;5093517;28;20384;-64
2022/10/22 03:55:10;;;;;;;23.35;15.70;;;;;;;;;;5094384;28;20024;-66
2022/10/22 03:57:36;;;;;;;22.77;15.57;;;;;;;;;;5093593;28;20027;-65
2022/10/22 04:00:03;;;;;;;24.98;16.35;;;;;;;;;;5094506;28;20020;-66
2022/10/22 04:02:29;;;;;;;23.55;15.43;;;;;;;;;;5093773;28;20078;-66
2022/10/22 04:04:55;;;;;;;24.75;15.52;;;;;;;;;;5092428;28;20510;-65
2022/10/22 04:07:21;;;;;;;38.92;19.58;;;;;;;;;;5093815;28;20086;-65
2022/10/22 04:09:47;;;;;;;23.58;15.98;;;;;;;;;;5092641;28;20048;-65
2022/10/22 04:12:13;;;;;;;23.17;15.75;;;;;;;;;;5093611;28;20455;-65
2022/10/22 04:14:39;;;;;;;26.10;16.02;;;;;;;;;;5084485;28;20016;-65
2022/10/22 04:17:05;;;;;;;26.88;15.95;;;;;;;;;;5093127;28;20028;-65
2022/10/22 04:19:31;;;;;;;23.00;16.25;;;;;;;;;;5073563;28;20119;-65
2022/10/22 04:21:58;;;;;;;24.58;16.35;;;;;;;;;;5075922;28;20028;-65
2022/10/22 04:24:24;;;;;;;25.23;17.10;;;;;;;;;;5092767;28;20024;-64
2022/10/22 04:26:50;;;;;;;26.15;16.33;;;;;;;;;;5093120;28;20143;-65
2022/10/22 04:29:16;;;;;;;24.65;16.27;;;;;;;;;;5093987;28;20511;-65
2022/10/22 04:31:42;;;;;;;27.90;16.80;;;;;;;;;;5083269;28;20031;-65
2022/10/22 04:34:08;;;;;;;27.67;17.27;;;;;;;;;;5075055;28;20492;-65
2022/10/22 04:36:34;;;;;;;23.25;16.42;;;;;;;;;;5073184;28;20017;-65
2022/10/22 04:39:00;;;;;;;23.20;16.80;;;;;;;;;;5072770;28;20044;-66
2022/10/22 04:41:28;;;;;;;22.00;16.42;;;;;;;;;;5097013;22;20432;-65
2022/10/22 04:43:54;;;;;;;30.45;21.17;;;;;;;;;;5030577;28;20132;-64
2022/10/22 04:46:20;;;;;;;24.10;17.90;;;;;;;;;;5051100;28;20051;-64
2022/10/22 04:48:46;;;;;;;28.23;18.40;;;;;;;;;;5033416;28;20039;-65
2022/10/22 04:51:13;;;;;;;27.60;18.40;;;;;;;;;;5051849;28;20056;-67
2022/10/22 04:53:40;;;;;;;44.88;19.52;;;;;;;;;;5050645;28;20025;-64
2022/10/22 04:56:06;;;;;;;28.50;19.30;;;;;;;;;;5033006;28;20053;-66
2022/10/22 04:58:32;;;;;;;26.42;18.48;;;;;;;;;;5051146;28;20033;-65
2022/10/22 05:00:58;;;;;;;26.27;18.77;;;;;;;;;;5032894;28;20120;-65
2022/10/22 05:03:25;;;;;;;24.20;17.73;;;;;;;;;;5050508;28;20120;-67
2022/10/22 05:05:51;;;;;;;25.70;18.42;;;;;;;;;;5050859;28;20372;-65
2022/10/22 05:08:17;;;;;;;27.50;18.35;;;;;;;;;;5050723;28;20021;-66
2022/10/22 05:10:43;;;;;;;27.33;18.73;;;;;;;;;;5050445;28;20100;-66
2022/10/22 05:13:09;;;;;;;27.40;17.65;;;;;;;;;;5032203;28;20025;-65
2022/10/22 05:15:34;;;;;;;25.88;18.38;;;;;;;;;;5050214;28;20055;-66
2022/10/22 05:18:01;;;;;;;24.83;17.55;;;;;;;;;;5050183;28;20024;-66
2022/10/22 05:20:28;;;;;;;34.88;19.23;;;;;;;;;;5050278;28;20032;-65
2022/10/22 05:22:54;;;;;;;27.52;18.45;;;;;;;;;;5032439;28;20017;-65
2022/10/22 05:25:20;;;;;;;27.92;18.35;;;;;;;;;;5052391;28;20031;-65
2022/10/22 05:27:49;;;;;;;26.23;18.38;;;;;;;;;;5054471;28;20025;-66
2022/10/22 05:30:15;;;;;;;26.55;16.77;;;;;;;;;;5036169;28;20075;-65
2022/10/22 05:32:41;;;;;;;25.30;18.08;;;;;;;;;;5036749;28;20444;-66
2022/10/22 05:35:07;;;;;;;25.65;17.73;;;;;;;;;;5054116;28;20025;-66
2022/10/22 05:37:33;;;;;;;23.88;17.77;;;;;;;;;;5036320;28;20025;-66
2022/10/22 05:39:59;;;;;;;28.17;18.45;;;;;;;;;;5053950;28;20047;-67
2022/10/22 05:42:25;;;;;;;29.52;18.70;;;;;;;;;;5035891;28;20082;-66
2022/10/22 05:44:51;;;;;;;25.70;18.23;;;;;;;;;;5053694;28;20025;-66
2022/10/22 05:47:17;;;;;;;26.77;18.48;;;;;;;;;;5036029;28;20040;-66
2022/10/22 05:49:43;;;;;;;28.88;19.17;;;;;;;;;;5035826;28;20125;-66
2022/10/22 05:52:09;;;;;;;27.70;18.00;;;;;;;;;;5053513;28;20021;-65
2022/10/22 05:54:35;;;;;;;30.30;18.90;;;;;;;;;;5053739;28;20047;-66
2022/10/22 05:57:01;;;;;;;24.80;18.58;;;;;;;;;;5053825;28;20104;-65
2022/10/22 05:59:27;;;;;;;26.88;18.27;;;;;;;;;;5052560;28;20025;-66
2022/10/22 06:01:53;;;;;;;26.63;19.13;;;;;;;;;;5054127;28;20021;-65
2022/10/22 06:04:19;;;;;;;27.77;19.58;;;;;;;;;;5053665;28;20021;-65
2022/10/22 06:06:49;;;;;;;28.98;19.90;;;;;;;;;;5052406;28;20040;-66
2022/10/22 06:09:17;;;;;;;29.17;18.17;;;;;;;;;;5053535;28;20032;-66
2022/10/22 06:11:43;;;;;;;31.92;21.45;;;;;;;;;;5052287;28;20028;-67
2022/10/22 06:14:10;;;;;;;30.10;19.40;;;;;;;;;;5053086;28;20032;-66
2022/10/22 06:16:36;;;;;;;32.13;21.95;;;;;;;;;;5053424;28;20405;-65
2022/10/22 06:19:02;;;;;;;30.00;19.40;;;;;;;;;;5053417;28;20021;-65
2022/10/22 06:21:29;;;;;;;27.05;18.25;;;;;;;;;;5053359;28;20025;-65
2022/10/22 06:23:55;;;;;;;27.45;18.90;;;;;;;;;;5053006;28;20033;-65
2022/10/22 06:26:21;;;;;;;27.85;18.40;;;;;;;;;;5053184;28;20103;-65
2022/10/22 06:28:47;;;;;;;27.48;18.80;;;;;;;;;;5053080;28;20104;-66
2022/10/22 06:31:13;;;;;;;34.45;20.75;;;;;;;;;;5035178;28;20142;-66
2022/10/22 06:33:42;;;;;;;25.08;18.73;;;;;;;;;;5034910;28;20028;-66
2022/10/22 06:36:10;;;;;;;29.05;19.00;;;;;;;;;;5052465;28;20134;-66
2022/10/22 06:38:37;;;;;;;28.17;17.63;;;;;;;;;;5053050;28;20029;-67
2022/10/22 06:41:07;;;;;;;26.83;17.92;;;;;;;;;;5035189;28;20083;-66
2022/10/22 06:43:33;;;;;;;26.58;17.83;;;;;;;;;;5052557;28;20124;-66
2022/10/22 06:46:00;;;;;;;27.17;17.95;;;;;;;;;;5052939;28;20427;-66
2022/10/22 06:48:26;;;;;;;24.50;17.90;;;;;;;;;;5034910;28;20029;-66
2022/10/22 06:50:52;;;;;;;31.55;19.70;;;;;;;;;;5052680;28;20155;-66
2022/10/22 06:53:18;;;;;;;28.90;18.67;;;;;;;;;;5052198;28;20097;-67
2022/10/22 06:55:44;;;;;;;29.95;18.83;;;;;;;;;;5052648;28;20025;-67
2022/10/22 06:58:10;;;;;;;25.90;18.08;;;;;;;;;;5052450;28;20025;-66
2022/10/22 07:00:36;;;;;;;24.67;17.17;;;;;;;;;;5034830;28;20611;-62
2022/10/22 07:03:02;;;;;;;25.42;17.20;;;;;;;;;;5052599;28;20044;-62
2022/10/22 07:05:28;;;;;;;30.40;19.48;;;;;;;;;;5052525;28;20056;-63
2022/10/22 07:07:54;;;;;;;25.42;18.13;;;;;;;;;;5052730;28;20021;-62
2022/10/22 07:10:20;;;;;;;26.00;17.30;;;;;;;;;;5035284;28;20029;-62
2022/10/22 07:12:46;;;;;;;25.33;18.00;;;;;;;;;;5052806;28;20033;-62
2022/10/22 07:15:12;;;;;;;27.15;18.60;;;;;;;;;;5052388;28;20009;-63
2022/10/22 07:17:38;;;;;;;26.30;17.60;;;;;;;;;;5052637;28;20070;-62
2022/10/22 07:20:04;;;;;;;28.98;17.90;;;;;;;;;;5052783;28;20389;-62
2022/10/22 07:22:31;;;;;;;26.30;16.83;;;;;;;;;;5052369;28;20052;-62
2022/10/22 07:24:57;;;;;;;26.42;17.00;;;;;;;;;;5052470;28;20089;-63
2022/10/22 07:27:23;;;;;;;27.50;18.58;;;;;;;;;;5034397;28;20427;-63
2022/10/22 07:29:49;;;;;;;25.13;17.70;;;;;;;;;;5052371;28;20025;-63
2022/10/22 07:32:15;;;;;;;27.35;17.67;;;;;;;;;;5052238;28;20467;-63
2022/10/22 07:34:41;;;;;;;26.38;18.50;;;;;;;;;;5051917;28;20059;-63
2022/10/22 07:37:07;;;;;;;27.60;18.33;;;;;;;;;;5047623;28;20079;-62
2022/10/22 07:39:33;;;;;;;25.55;16.80;;;;;;;;;;5034217;28;20056;-62
2022/10/22 07:41:59;;;;;;;22.30;16.92;;;;;;;;;;5051762;28;20029;-62
2022/10/22 07:44:25;;;;;;;23.48;17.25;;;;;;;;;;5051767;28;20469;-63
2022/10/22 07:46:51;;;;;;;24.52;18.20;;;;;;;;;;5052371;28;20031;-62
2022/10/22 07:49:17;;;;;;;24.92;17.02;;;;;;;;;;5032913;28;20116;-62
2022/10/22 07:51:43;;;;;;;24.38;16.38;;;;;;;;;;5052084;28;20032;-62
2022/10/22 07:54:09;;;;;;;24.48;16.10;;;;;;;;;;5051228;28;20020;-65
2022/10/22 07:56:35;;;;;;;22.02;15.52;;;;;;;;;;5051525;28;20108;-65
2022/10/22 07:59:01;;;;;;;25.08;14.85;;;;;;;;;;5051408;28;20025;-65
2022/10/22 08:01:27;;;;;;;21.27;14.98;;;;;;;;;;5033372;28;20029;-65
2022/10/22 08:03:53;;;;;;;23.35;14.27;;;;;;;;;;5051019;28;20060;-66
2022/10/22 08:06:19;;;;;;;22.08;14.80;;;;;;;;;;5051335;28;20025;-65
2022/10/22 08:08:45;;;;;;;21.30;14.02;;;;;;;;;;5050884;28;20033;-65
2022/10/22 08:11:11;;;;;;;24.55;15.18;;;;;;;;;;5050845;28;20025;-66
2022/10/22 08:13:38;;;;;;;21.38;15.18;;;;;;;;;;5050795;28;20021;-65
2022/10/22 08:16:04;;;;;;;22.40;14.88;;;;;;;;;;5050836;28;20035;-64
2022/10/22 08:18:30;;;;;;;23.45;14.98;;;;;;;;;;5051081;28;20029;-65
2022/10/22 08:20:56;;;;;;;22.52;15.65;;;;;;;;;;5051083;28;20396;-66
2022/10/22 08:23:22;;;;;;;21.08;14.82;;;;;;;;;;5050621;28;20103;-66
2022/10/22 08:25:48;;;;;;;23.55;14.68;;;;;;;;;;5050715;28;20033;-66
2022/10/22 08:28:14;;;;;;;25.45;15.43;;;;;;;;;;5033356;28;20079;-66
2022/10/22 08:30:41;;;;;;;20.85;13.95;;;;;;;;;;5050941;28;20334;-64
2022/10/22 08:33:07;;;;;;;22.65;12.68;;;;;;;;;;5050534;28;20021;-65
2022/10/22 08:35:33;;;;;;;21.15;11.75;;;;;;;;;;5050786;28;20116;-66
2022/10/22 08:37:59;;;;;;;18.88;11.07;;;;;;;;;;5050907;28;20021;-65
2022/10/22 08:40:29;;;;;;;21.92;11.88;;;;;;;;;;5050768;28;20028;-63
2022/10/22 08:43:16;;;;;;;23.65;12.00;;;;;;;;;;5050532;28;20037;-65
2022/10/22 08:45:42;;;;;;;24.58;12.07;;;;;;;;;;5002793;28;20416;-65
2022/10/22 08:48:13;;;;;;;18.08;10.45;;;;;;;;;;5049430;28;20028;-65
2022/10/22 08:50:45;;;;;;;20.13;11.40;;;;;;;;;;5032489;28;20028;-66
2022/10/22 08:53:15;;;;;;;18.73;11.30;;;;;;;;;;5050427;28;20401;-65
2022/10/22 08:55:42;;;;;;;20.30;10.50;;;;;;;;;;5050759;28;20042;-65
2022/10/22 08:58:19;;;;;;;24.02;12.52;;;;;;;;;;5050691;28;20032;-64
2022/10/22 09:01:05;;;;;;;18.73;10.30;;;;;;;;;;5032497;28;20027;-64
2022/10/22 09:03:44;;;;;;;18.50;11.07;;;;;;;;;;5009584;28;20029;-65
2022/10/22 09:06:13;;;;;;;20.90;10.35;;;;;;;;;;5032651;28;20103;-66
2022/10/22 09:08:41;;;;;;;21.55;10.80;;;;;;;;;;5050186;28;20025;-67
2022/10/22 09:11:10;;;;;;;18.42;10.23;;;;;;;;;;5049519;28;20047;-68
2022/10/22 09:13:37;;;;;;;22.90;10.20;;;;;;;;;;5049901;28;20052;-65
2022/10/22 09:16:29;;;;;;;18.65;9.32;;;;;;;;;;5050319;28;20139;-66
2022/10/22 09:19:01;;;;;;;19.08;9.60;;;;;;;;;;5047403;28;20563;-65
2022/10/22 09:21:46;;;;;;;17.80;9.07;;;;;;;;;;5032279;28;20503;-65
2022/10/22 09:24:32;;;;;;;19.30;8.73;;;;;;;;;;5051811;28;20397;-66
2022/10/22 09:26:58;;;;;;;17.50;8.70;;;;;;;;;;5036535;28;20041;-65
2022/10/22 09:29:30;;;;;;;19.52;8.38;;;;;;;;;;5032073;28;20052;-64
2022/10/22 09:31:56;;;;;;;16.88;8.48;;;;;;;;;;5050085;28;20389;-65
2022/10/22 09:34:22;;;;;;;21.55;8.65;;;;;;;;;;5032241;28;20025;-65
2022/10/22 09:36:56;;;;;;;20.63;9.18;;;;;;;;;;5050290;28;20397;-65
2022/10/22 09:39:24;;;;;;;17.75;7.95;;;;;;;;;;5050474;28;20068;-64
2022/10/22 09:41:50;;;;;;;19.08;8.05;;;;;;;;;;5050284;28;20028;-65
2022/10/22 09:44:17;;;;;;;19.67;9.88;;;;;;;;;;5049951;28;20439;-64
2022/10/22 09:46:44;;;;;;;20.08;8.68;;;;;;;;;;5051212;28;20040;-64
2022/10/22 09:49:22;;;;;;;21.10;8.75;;;;;;;;;;5033119;28;20036;-65
2022/10/22 09:51:56;;;;;;;19.83;8.95;;;;;;;;;;5031191;28;20033;-64
2022/10/22 09:54:37;;;;;;;19.42;8.63;;;;;;;;;;5030938;28;20032;-64
2022/10/22 09:57:05;;;;;;;20.15;8.63;;;;;;;;;;5031443;28;20017;-64
2022/10/22 09:59:32;;;;;;;17.80;8.65;;;;;;;;;;5031581;28;20029;-64
2022/10/22 10:02:22;;;;;;;19.40;8.15;;;;;;;;;;5030312;28;20052;-65
2022/10/22 10:04:52;;;;;;;19.13;8.13;;;;;;;;;;5020165;28;20037;-70
2022/10/22 10:07:22;;;;;;;27.70;8.18;;;;;;;;;;5039913;28;20025;-64
2022/10/22 10:09:50;;;;;;;19.60;8.15;;;;;;;;;;5049284;28;20029;-66
2022/10/22 10:12:16;;;;;;;20.42;8.43;;;;;;;;;;5051076;28;20029;-67
2022/10/22 10:14:57;;;;;;;19.38;7.93;;;;;;;;;;5052488;28;20116;-65
2022/10/22 10:17:29;;;;;;;25.60;8.50;;;;;;;;;;5052321;28;20029;-64
2022/10/22 10:19:56;;;;;;;20.63;8.57;;;;;;;;;;5053241;28;20033;-63
2022/10/22 10:22:25;;;;;;;20.45;9.27;;;;;;;;;;5053274;28;20025;-63
2022/10/22 10:24:54;;;;;;;19.13;8.38;;;;;;;;;;5052952;28;20381;-65
2022/10/22 10:27:35;;;;;;;18.55;8.75;;;;;;;;;;5051691;28;20060;-65
2022/10/22 10:30:22;;;;;;;17.02;7.80;;;;;;;;;;5052744;28;20032;-62
2022/10/22 10:32:48;;;;;;;21.90;8.57;;;;;;;;;;5052557;28;20424;-62
2022/10/22 10:35:30;;;;;;;19.80;8.63;;;;;;;;;;5052885;28;20032;-64
2022/10/22 10:37:56;;;;;;;16.98;8.15;;;;;;;;;;5053253;28;20052;-64
2022/10/22 10:40:32;;;;;;;17.25;8.35;;;;;;;;;;5051598;28;20021;-65
2022/10/22 10:43:05;;;;;;;18.02;7.72;;;;;;;;;;5084976;22;20404;-62
2022/10/22 10:45:50;;;;;;;19.73;8.55;;;;;;;;;;5074101;28;20021;-61
2022/10/22 10:48:32;;;;;;;17.92;7.55;;;;;;;;;;5074548;28;20024;-62
2022/10/22 10:50:58;;;;;;;15.68;7.97;;;;;;;;;;5074380;28;20021;-60
2022/10/22 10:53:34;;;;;;;20.00;8.52;;;;;;;;;;5072116;28;20059;-61
2022/10/22 10:56:15;;;;;;;22.10;7.47;;;;;;;;;;5073839;28;20028;-62
2022/10/22 10:59:00;;;;;;;19.95;8.23;;;;;;;;;;5073835;28;20024;-60
2022/10/22 11:01:26;;;;;;;17.40;7.90;;;;;;;;;;5073775;28;20024;-58
2022/10/22 11:03:51;;;;;;;16.98;7.63;;;;;;;;;;5072102;28;20306;-58
2022/10/22 11:06:20;;;;;;;19.33;7.85;;;;;;;;;;5073322;28;20154;-62
2022/10/22 11:08:55;;;;;;;20.23;7.90;;;;;;;;;;5073470;28;20029;-60
2022/10/22 11:11:26;;;;;;;23.20;7.65;;;;;;;;;;5073534;28;20456;-60
2022/10/22 11:13:55;;;;;;;19.45;6.82;;;;;;;;;;5072015;28;20043;-61
2022/10/22 11:16:33;;;;;;;17.55;7.65;;;;;;;;;;5072260;28;20017;-60
2022/10/22 11:19:02;;;;;;;19.23;6.95;;;;;;;;;;5073370;28;20484;-59
2022/10/22 11:21:48;;;;;;;18.08;7.80;;;;;;;;;;5072958;28;20362;-60
2022/10/22 11:24:34;;;;;;;17.80;7.57;;;;;;;;;;5064757;28;20451;-62
2022/10/22 11:27:11;;;;;;;16.33;7.20;;;;;;;;;;5072973;28;20021;-61
2022/10/22 11:29:40;;;;;;;14.50;7.43;;;;;;;;;;5073046;28;20033;-60
2022/10/22 11:32:09;;;;;;;17.88;7.82;;;;;;;;;;5072983;28;20025;-60
2022/10/22 11:34:41;;;;;;;16.95;7.40;;;;;;;;;;5072558;28;20021;-63
2022/10/22 11:37:09;;;;;;;19.63;8.57;;;;;;;;;;5073159;28;20020;-62
2022/10/22 11:39:38;;;;;;;18.33;7.50;;;;;;;;;;5093013;28;20103;-62
2022/10/22 11:42:09;;;;;;;17.15;7.57;;;;;;;;;;5085990;28;20021;-63
2022/10/22 11:44:47;;;;;;;18.45;7.88;;;;;;;;;;5086071;28;20045;-60
2022/10/22 11:47:33;;;;;;;18.40;7.85;;;;;;;;;;5093129;28;20044;-59
2022/10/22 11:50:15;;;;;;;18.42;7.57;;;;;;;;;;5092770;28;20073;-60
2022/10/22 11:52:47;;;;;;;14.98;7.30;;;;;;;;;;5092730;28;20020;-57
2022/10/22 11:55:31;;;;;;;21.38;9.07;;;;;;;;;;5092990;28;20439;-59
2022/10/22 11:57:59;;;;;;;16.40;7.90;;;;;;;;;;4379854;28;10000740;-61
2022/10/22 12:00:46;;;;;;;18.50;7.13;;;;;;;;;;5069261;28;20020;-60
2022/10/22 12:03:17;;;;;;;15.25;7.13;;;;;;;;;;5067907;28;20464;-58
2022/10/22 12:05:44;;;;;;;16.52;7.63;;;;;;;;;;5072974;28;20546;-62
2022/10/22 12:08:10;;;;;;;19.75;8.80;;;;;;;;;;5078943;28;20077;-62
2022/10/22 12:10:57;;;;;;;18.63;8.25;;;;;;;;;;5078804;28;20503;-60
2022/10/22 12:13:27;;;;;;;17.45;9.35;;;;;;;;;;5078072;28;20047;-64
2022/10/22 12:15:56;;;;;;;24.92;9.07;;;;;;;;;;5072346;28;20644;-60
2022/10/22 12:18:27;;;;;;;17.80;9.60;;;;;;;;;;5088601;28;20099;-62
2022/10/22 12:20:53;;;;;;;20.40;10.60;;;;;;;;;;5089545;28;20048;-56
2022/10/22 12:23:21;;;;;;;16.90;9.50;;;;;;;;;;5089403;28;20459;-63
2022/10/22 12:25:47;;;;;;;18.42;10.27;;;;;;;;;;5085628;28;20043;-62
2022/10/22 12:28:15;;;;;;;25.10;14.18;;;;;;;;;;5080552;28;20024;-61
2022/10/22 12:30:41;;;;;;;25.85;21.95;;;;;;;;;;5079204;28;20491;-60
2022/10/22 12:33:17;;;;;;;27.98;24.75;;;;;;;;;;5081114;28;20031;-62
2022/10/22 12:35:44;;;;;;;27.35;24.63;;;;;;;;;;5076641;28;20082;-62
2022/10/22 12:38:21;;;;;;;27.42;24.42;;;;;;;;;;5077636;28;20090;-63
2022/10/22 12:40:49;;;;;;;27.20;24.27;;;;;;;;;;5076842;28;20016;-63
2022/10/22 12:43:16;;;;;;;29.00;26.00;;;;;;;;;;5083362;28;20060;-63
2022/10/22 12:45:43;;;;;;;27.73;24.52;;;;;;;;;;5079732;28;20031;-65
2022/10/22 12:48:19;;;;;;;25.70;23.02;;;;;;;;;;5081053;28;20074;-61
2022/10/22 12:50:48;;;;;;;26.90;24.05;;;;;;;;;;5091613;28;20051;-61
2022/10/22 12:53:23;;;;;;;27.33;23.08;;;;;;;;;;5089864;28;20043;-62
2022/10/22 12:55:53;;;;;;;25.10;22.15;;;;;;;;;;5091787;28;20020;-59
2022/10/22 12:58:25;;;;;;;24.83;22.10;;;;;;;;;;4726441;28;10000392;-60
2022/10/22 13:01:00;;;;;;;26.10;21.40;;;;;;;;;;5069450;28;20337;-63
2022/10/22 13:03:26;;;;;;;24.02;20.52;;;;;;;;;;5068898;28;20013;-59
2022/10/22 13:05:52;;;;;;;25.30;20.58;;;;;;;;;;5063739;28;20428;-62
2022/10/22 13:08:21;;;;;;;22.83;19.70;;;;;;;;;;5050069;28;20017;-62
2022/10/22 13:10:53;;;;;;;22.90;19.83;;;;;;;;;;5050555;28;20056;-61
2022/10/22 13:13:49;;;;;;;25.13;20.67;;;;;;;;;;5051488;28;20023;-61
2022/10/22 13:16:19;;;;;;;22.35;19.88;;;;;;;;;;5033656;28;20040;-58
2022/10/22 13:18:46;;;;;;;22.95;20.48;;;;;;;;;;5051218;28;20029;-62
2022/10/22 13:21:27;;;;;;;25.70;20.25;;;;;;;;;;5050408;28;20028;-61
2022/10/22 13:23:54;;;;;;;25.52;18.52;;;;;;;;;;5051047;28;20104;-57
2022/10/22 13:26:20;;;;;;;24.05;18.30;;;;;;;;;;5051307;28;20453;-62
2022/10/22 13:28:50;;;;;;;22.52;18.67;;;;;;;;;;5057115;28;20435;-57
2022/10/22 13:31:18;;;;;;;20.23;18.02;;;;;;;;;;5079948;28;20480;-61
2022/10/22 13:33:45;;;;;;;23.55;19.33;;;;;;;;;;5079510;28;20039;-62
2022/10/22 13:36:13;;;;;;;22.92;20.00;;;;;;;;;;5092202;28;20024;-59
2022/10/22 13:38:39;;;;;;;27.30;19.35;;;;;;;;;;5081010;28;20425;-61
2022/10/22 13:41:17;;;;;;;24.65;20.00;;;;;;;;;;5078459;28;20074;-60
2022/10/22 13:43:43;;;;;;;22.40;17.83;;;;;;;;;;5081265;28;20378;-60
2022/10/22 13:46:09;;;;;;;23.65;18.15;;;;;;;;;;5080110;28;20028;-62
2022/10/22 13:48:35;;;;;;;22.80;17.27;;;;;;;;;;5084815;28;20024;-61
2022/10/22 13:51:02;;;;;;;24.70;16.13;;;;;;;;;;5085505;28;20017;-57
2022/10/22 13:53:28;;;;;;;22.48;13.75;;;;;;;;;;5083097;28;20376;-61
2022/10/22 13:55:55;;;;;;;22.27;13.98;;;;;;;;;;5085195;28;20377;-60
2022/10/22 13:58:25;;;;;;;19.75;13.98;;;;;;;;;;5085022;28;20024;-60
2022/10/22 14:00:54;;;;;;;19.73;13.63;;;;;;;;;;5080766;28;20100;-61
2022/10/22 14:03:22;;;;;;;21.55;13.48;;;;;;;;;;5084964;28;20380;-62
2022/10/22 14:05:48;;;;;;;19.33;14.00;;;;;;;;;;5083962;28;20097;-62
2022/10/22 14:08:24;;;;;;;21.40;14.45;;;;;;;;;;5083773;28;20012;-62
2022/10/22 14:10:50;;;;;;;20.52;14.32;;;;;;;;;;5080495;28;20098;-61
2022/10/22 14:13:17;;;;;;;23.70;13.77;;;;;;;;;;5084123;28;20376;-62
2022/10/22 14:15:44;;;;;;;24.17;15.65;;;;;;;;;;5085506;28;20020;-59
2022/10/22 14:18:22;;;;;;;20.25;14.43;;;;;;;;;;5080095;28;20135;-62
2022/10/22 14:20:49;;;;;;;21.30;14.82;;;;;;;;;;4727770;28;10000352;-59
2022/10/22 14:23:17;;;;;;;23.48;15.43;;;;;;;;;;5080944;28;20465;-63
2022/10/22 14:25:44;;;;;;;22.48;14.32;;;;;;;;;;4731231;28;9999754;-63
2022/10/22 14:28:10;;;;;;;21.95;14.40;;;;;;;;;;5074269;28;20109;-60
2022/10/22 14:30:36;;;;;;;19.30;13.38;;;;;;;;;;5078273;28;20039;-60